Time;durP1;ratioP1;P1;durP2;ratioP2;P2;SDS_P1;SDS_P2;PMS_P1;PMS_P2;Temp;Humidity;BMP_temperature;BMP_pressure;BME280_temperature;BME280_humidity;BME280_pressure;Samples;Min_cycle;Max_cycle;Signal;HPM_P1;HPM_P2
2021/07/04 00:00:25;;;;;;;8.40;2.40;;;;;;;20.02;64.26;100683.25;4993340;28;20134;-71
2021/07/04 00:02:53;;;;;;;4.78;2.50;;;;;;;20.06;64.29;100683.41;4993260;28;20569;-68
2021/07/04 00:05:23;;;;;;;6.00;2.92;;;;;;;20.08;64.51;100681.91;4981409;28;20126;-67
2021/07/04 00:07:50;;;;;;;2.55;1.63;;;;;;;20.08;64.49;100687.56;4989447;28;20049;-68
2021/07/04 00:10:23;;;;;;;8.48;2.42;;;;;;;20.08;64.31;100659.22;4991554;28;20133;-69
2021/07/04 00:12:54;;;;;;;5.50;2.10;;;;;;;20.21;64.70;100679.19;4986414;28;20116;-69
2021/07/04 00:15:24;;;;;;;4.18;2.00;;;;;;;20.29;64.43;100675.44;4987657;28;20082;-73
2021/07/04 00:17:51;;;;;;;7.57;2.28;;;;;;;20.33;64.18;100673.59;4986297;28;20070;-75
2021/07/04 00:20:20;;;;;;;4.40;2.60;;;;;;;20.35;64.18;100671.25;4991089;28;20078;-75
2021/07/04 00:22:48;;;;;;;5.97;2.38;;;;;;;20.39;64.03;100658.03;4990923;28;20050;-72
2021/07/04 00:25:16;;;;;;;4.78;2.03;;;;;;;20.41;63.72;100667.03;4991621;28;20088;-72
2021/07/04 00:27:43;;;;;;;3.92;2.45;;;;;;;20.43;63.85;100675.19;4983421;28;20038;-74
2021/07/04 00:30:13;;;;;;;5.90;2.10;;;;;;;20.44;63.56;100659.81;4986814;28;20133;-73
2021/07/04 00:32:40;;;;;;;7.00;2.22;;;;;;;20.48;63.90;100684.34;4983507;28;20078;-69
2021/07/04 00:35:09;;;;;;;6.63;2.97;;;;;;;20.51;63.60;100678.00;4989928;28;20089;-65
2021/07/04 00:37:36;;;;;;;5.15;2.17;;;;;;;20.40;63.73;100645.50;4985854;28;20129;-66
2021/07/04 00:40:08;;;;;;;5.75;2.60;;;;;;;20.53;63.58;100664.28;4992586;28;20117;-70
2021/07/04 00:42:36;;;;;;;5.72;2.25;;;;;;;20.46;63.68;100646.97;4988730;28;20061;-76
2021/07/04 00:45:13;;;;;;;9.63;2.75;;;;;;;20.49;63.62;100654.78;4987350;28;20093;-65
2021/07/04 00:47:41;;;;;;;5.30;2.72;;;;;;;20.50;63.53;100650.78;4986285;28;20077;-66
2021/07/04 00:50:08;;;;;;;7.10;2.45;;;;;;;20.59;63.44;100670.59;4994269;28;20149;-71
2021/07/04 00:52:36;;;;;;;6.25;2.88;;;;;;;20.56;63.44;100680.63;4990087;28;20054;-72
2021/07/04 00:55:06;;;;;;;9.95;2.67;;;;;;;20.41;63.32;100643.50;4994044;28;20545;-67
2021/07/04 00:57:34;;;;;;;6.38;2.42;;;;;;;20.50;63.36;100676.31;4983859;28;20551;-66
2021/07/04 01:00:02;;;;;;;5.85;2.42;;;;;;;20.41;63.58;100667.03;4990560;28;20053;-69
2021/07/04 01:02:29;;;;;;;10.85;2.72;;;;;;;20.34;63.47;100661.06;4987949;28;20137;-69
2021/07/04 01:04:56;;;;;;;5.18;1.98;;;;;;;20.42;63.66;100668.69;4990713;28;20133;-67
2021/07/04 01:07:23;;;;;;;6.70;2.38;;;;;;;20.23;63.50;100637.94;4982395;28;20043;-74
2021/07/04 01:09:50;;;;;;;9.95;2.15;;;;;;;20.33;63.53;100642.38;4987794;28;20086;-74
2021/07/04 01:12:17;;;;;;;10.25;2.15;;;;;;;20.43;63.67;100650.50;4973769;28;20066;-69
2021/07/04 01:14:44;;;;;;;7.07;1.73;;;;;;;20.51;63.63;100654.47;4976636;28;20053;-71
2021/07/04 01:17:11;;;;;;;7.40;2.53;;;;;;;20.53;63.66;100657.78;4984984;28;20579;-65
2021/07/04 01:19:37;;;;;;;5.10;1.80;;;;;;;20.55;63.55;100664.78;4986196;28;20403;-67
2021/07/04 01:22:05;;;;;;;4.35;1.88;;;;;;;20.56;63.49;100669.28;4984249;28;20420;-67
2021/07/04 01:24:32;;;;;;;9.25;2.15;;;;;;;20.49;63.74;100645.44;4992264;28;20125;-67
2021/07/04 01:26:59;;;;;;;9.20;2.15;;;;;;;20.57;63.46;100653.91;5007397;28;20078;-69
2021/07/04 01:29:26;;;;;;;8.98;2.22;;;;;;;20.56;63.75;100646.59;4992837;28;20141;-68
2021/07/04 01:31:52;;;;;;;6.80;1.95;;;;;;;20.71;63.47;100658.47;4987644;28;20141;-68
2021/07/04 01:34:19;;;;;;;6.47;1.88;;;;;;;20.70;63.16;100651.16;4990049;28;20074;-67
2021/07/04 01:36:46;;;;;;;7.22;2.90;;;;;;;20.72;63.25;100643.97;4985839;28;20066;-69
2021/07/04 01:39:13;;;;;;;9.38;3.50;;;;;;;20.69;63.42;100641.81;4992384;28;20085;-69
2021/07/04 01:41:40;;;;;;;5.65;1.80;;;;;;;20.73;63.18;100642.78;4995240;28;20171;-76
2021/07/04 01:44:06;;;;;;;4.65;1.35;;;;;;;20.68;63.02;100627.94;4980577;28;20078;-73
2021/07/04 01:46:33;;;;;;;9.00;2.38;;;;;;;20.76;62.79;100635.59;4988952;28;20140;-72
2021/07/04 01:49:00;;;;;;;6.00;1.92;;;;;;;20.61;62.87;100630.53;4985612;28;20061;-73
2021/07/04 01:51:27;;;;;;;3.42;1.45;;;;;;;20.77;62.79;100654.25;4990673;28;20060;-71
2021/07/04 01:53:54;;;;;;;4.72;1.92;;;;;;;20.79;62.85;100643.41;4992753;28;20134;-74
2021/07/04 01:56:21;;;;;;;4.28;1.50;;;;;;;20.68;62.90;100622.28;4990647;28;20052;-74
2021/07/04 01:58:48;;;;;;;5.95;2.03;;;;;;;20.58;62.90;100615.00;4984197;28;20069;-73
2021/07/04 02:01:15;;;;;;;6.63;2.17;;;;;;;20.83;62.75;100655.72;4990942;28;20121;-78
2021/07/04 02:03:42;;;;;;;8.48;1.70;;;;;;;20.86;62.54;100651.34;4980607;28;20046;-76
2021/07/04 02:06:09;;;;;;;7.80;2.00;;;;;;;20.83;62.65;100645.19;4979161;28;20507;-73
2021/07/04 02:08:36;;;;;;;7.15;2.03;;;;;;;20.82;62.68;100640.69;4986230;28;20046;-72
2021/07/04 02:11:03;;;;;;;5.45;1.80;;;;;;;20.95;62.55;100652.91;4990655;28;20081;-72
2021/07/04 02:13:30;;;;;;;9.27;2.05;;;;;;;20.96;62.58;100648.09;4978467;28;20073;-73
2021/07/04 02:15:57;;;;;;;6.95;3.15;;;;;;;20.94;62.65;100653.28;4983687;28;20047;-69
2021/07/04 02:18:24;;;;;;;8.05;2.20;;;;;;;20.86;62.41;100637.16;4986037;28;20050;-68
2021/07/04 02:20:53;;;;;;;4.95;2.70;;;;;;;20.88;62.69;100637.63;4990227;28;20137;-69
2021/07/04 02:23:22;;;;;;;6.80;1.73;;;;;;;20.89;62.86;100637.28;4990801;28;20120;-72
2021/07/04 02:25:50;;;;;;;7.15;2.20;;;;;;;20.82;62.67;100626.50;4989273;28;20042;-70
2021/07/04 02:28:19;;;;;;;7.15;2.28;;;;;;;20.94;62.71;100628.56;4989316;28;20082;-69
2021/07/04 02:30:47;;;;;;;;;;;;;;;21.00;62.73;100615.81;4990977;28;20070;-67
2021/07/04 02:33:15;;;;;;;5.65;1.98;;;;;;;20.93;62.50;100609.88;4991863;28;19929;-67
2021/07/04 02:35:46;;;;;;;4.80;1.52;;;;;;;21.00;62.32;100610.13;4989833;28;20670;-65
2021/07/04 02:38:13;;;;;;;6.38;2.38;;;;;;;20.96;62.61;100625.38;4985942;28;20471;-64
2021/07/04 02:40:42;;;;;;;4.82;1.75;;;;;;;20.90;62.61;100636.13;4991018;28;20097;-65
2021/07/04 02:43:11;;;;;;;5.72;1.58;;;;;;;20.86;62.67;100642.84;4990218;28;20482;-65
2021/07/04 02:45:38;;;;;;;9.35;1.80;;;;;;;20.74;62.86;100624.56;4987363;28;20039;-64
2021/07/04 02:48:07;;;;;;;5.93;2.83;;;;;;;20.83;62.86;100639.50;4985373;28;20043;-65
2021/07/04 02:50:34;;;;;;;7.03;1.70;;;;;;;20.80;62.89;100645.88;4979826;28;20129;-65
2021/07/04 02:53:01;;;;;;;11.32;2.20;;;;;;;20.82;62.87;100649.22;4990660;28;20300;-64
2021/07/04 02:55:28;;;;;;;6.43;2.22;;;;;;;20.82;62.94;100651.22;4992170;28;20129;-65
2021/07/04 02:57:55;;;;;;;9.88;2.85;;;;;;;20.68;63.18;100647.81;4987329;28;20185;-65
2021/07/04 03:00:26;;;;;;;5.75;2.22;;;;;;;20.61;63.26;100630.53;4984219;28;20479;-65
2021/07/04 03:02:54;;;;;;;12.05;2.30;;;;;;;20.69;63.26;100633.31;4985181;28;20146;-67
2021/07/04 03:05:21;;;;;;;10.52;2.08;;;;;;;20.70;63.11;100649.13;4983708;28;20129;-67
2021/07/04 03:07:49;;;;;;;9.43;2.58;;;;;;;20.71;62.88;100641.44;4989966;28;20042;-68
2021/07/04 03:10:18;;;;;;;5.90;2.58;;;;;;;20.71;63.17;100630.09;4980053;28;20046;-69
2021/07/04 03:12:46;;;;;;;5.30;2.13;;;;;;;20.63;63.37;100629.00;4988542;28;20066;-69
2021/07/04 03:15:14;;;;;;;7.18;2.22;;;;;;;20.64;63.41;100641.19;4988864;28;20133;-68
2021/07/04 03:17:41;;;;;;;5.32;2.15;;;;;;;20.69;63.47;100650.31;4990341;28;20066;-68
2021/07/04 03:20:12;;;;;;;4.80;2.63;;;;;;;20.68;63.42;100636.47;4982566;28;20132;-68
2021/07/04 03:22:41;;;;;;;6.57;2.35;;;;;;;20.72;63.33;100645.97;4990432;28;20078;-70
2021/07/04 03:25:10;;;;;;;7.97;2.25;;;;;;;20.69;63.46;100638.97;4979036;28;20057;-70
2021/07/04 03:27:37;;;;;;;3.97;1.83;;;;;;;20.68;63.60;100642.16;4983170;28;20107;-70
2021/07/04 03:30:08;;;;;;;6.35;2.40;;;;;;;20.50;63.59;100613.91;4989383;28;20081;-66
2021/07/04 03:32:35;;;;;;;8.68;2.38;;;;;;;20.69;63.60;100643.81;4984825;28;20047;-67
2021/07/04 03:35:05;;;;;;;5.43;2.15;;;;;;;20.67;63.54;100644.16;4992121;28;20050;-67
2021/07/04 03:37:32;;;;;;;7.88;2.83;;;;;;;20.65;63.60;100642.84;4989817;28;20129;-68
2021/07/04 03:39:59;;;;;;;7.05;2.55;;;;;;;20.63;63.74;100639.53;4980818;28;20109;-69
2021/07/04 03:42:25;;;;;;;9.73;1.90;;;;;;;20.74;63.30;100635.09;4989056;28;20734;-69
2021/07/04 03:44:52;;;;;;;8.18;2.00;;;;;;;20.78;63.57;100647.41;4989923;28;20096;-69
2021/07/04 03:47:23;;;;;;;9.18;2.60;;;;;;;20.69;63.68;100643.81;4984284;28;20137;-68
2021/07/04 03:49:50;;;;;;;6.88;2.35;;;;;;;20.51;64.18;100646.81;4979566;28;20057;-73
2021/07/04 03:52:17;;;;;;;9.98;2.42;;;;;;;20.52;64.02;100661.81;4991713;28;20125;-71
2021/07/04 03:54:44;;;;;;;5.38;2.33;;;;;;;20.45;64.26;100633.13;4982907;28;20053;-71
2021/07/04 03:57:24;;;;;;;3.83;1.90;;;;;;;20.49;64.22;100653.97;4988738;28;20082;-69
2021/07/04 03:59:56;;;;;;;8.40;2.33;;;;;;;20.45;64.18;100641.66;4981043;28;20531;-68
2021/07/04 04:02:24;;;;;;;9.50;2.58;;;;;;;20.50;64.19;100653.63;4986047;28;20446;-68
2021/07/04 04:04:57;;;;;;;6.95;2.60;;;;;;;20.44;64.36;100648.47;4984403;28;20074;-67
2021/07/04 04:07:25;;;;;;;7.82;2.15;;;;;;;20.53;64.38;100657.78;4991070;28;20121;-67
2021/07/04 04:09:52;;;;;;;6.20;1.92;;;;;;;20.47;64.35;100659.13;4986407;28;20058;-69
2021/07/04 04:12:20;;;;;;;9.18;2.25;;;;;;;20.49;64.58;100666.13;4988365;28;20055;-65
2021/07/04 04:14:47;;;;;;;9.40;2.08;;;;;;;20.51;64.20;100666.66;4993154;28;20100;-65
2021/07/04 04:17:14;;;;;;;6.10;2.25;;;;;;;20.47;64.37;100659.97;4992668;28;20134;-64
2021/07/04 04:19:42;;;;;;;7.40;2.10;;;;;;;20.56;64.32;100663.59;4988844;28;20046;-65
2021/07/04 04:22:09;;;;;;;7.97;2.20;;;;;;;20.49;64.33;100646.28;4981641;28;20133;-65
2021/07/04 04:24:36;;;;;;;8.25;1.92;;;;;;;20.49;64.37;100654.78;4991043;28;20285;-68
2021/07/04 04:27:03;;;;;;;6.85;1.85;;;;;;;20.58;64.59;100669.78;4992885;28;20097;-74
2021/07/04 04:29:30;;;;;;;8.35;2.95;;;;;;;20.47;64.58;100651.44;4981232;28;20043;-68
2021/07/04 04:31:57;;;;;;;9.43;2.10;;;;;;;20.38;64.56;100662.06;4987119;28;20137;-70
2021/07/04 04:34:24;;;;;;;7.13;1.88;;;;;;;20.44;64.68;100652.13;4995575;28;20465;-67
2021/07/04 04:36:50;;;;;;;8.27;2.42;;;;;;;20.58;64.99;100677.44;4991625;28;20133;-72
2021/07/04 04:39:20;;;;;;;3.42;1.65;;;;;;;20.56;64.99;100648.59;4993485;28;20077;-65
2021/07/04 04:41:48;;;;;;;3.03;1.70;;;;;;;20.59;65.11;100662.09;4988601;28;20054;-75
2021/07/04 04:44:31;;;;;;;6.70;1.85;;;;;;;20.51;65.09;100661.00;5002193;28;20082;-72
2021/07/04 04:46:58;;;;;;;6.13;2.35;;;;;;;20.61;65.09;100662.56;4988482;28;20461;-69
2021/07/04 04:49:25;;;;;;;5.43;2.38;;;;;;;20.79;65.12;100657.59;4986331;28;20047;-72
2021/07/04 04:51:52;;;;;;;5.03;2.25;;;;;;;20.88;64.82;100655.50;5006474;28;20082;-73
2021/07/04 04:54:19;;;;;;;9.18;2.47;;;;;;;20.79;64.96;100637.72;4993032;28;20049;-70
2021/07/04 04:56:46;;;;;;;9.60;3.00;;;;;;;20.89;64.69;100637.28;4991012;28;20085;-71
2021/07/04 04:59:13;;;;;;;3.85;1.83;;;;;;;20.95;64.72;100644.41;4994927;28;20078;-72
2021/07/04 05:01:39;;;;;;;6.45;2.03;;;;;;;20.74;64.71;100618.06;4989663;28;20159;-73
2021/07/04 05:04:07;;;;;;;7.75;2.60;;;;;;;20.97;64.93;100638.38;4987663;28;20494;-72
2021/07/04 05:06:34;;;;;;;7.28;2.40;;;;;;;21.12;64.63;100645.41;4990545;28;20608;-72
2021/07/04 05:09:01;;;;;;;4.78;2.80;;;;;;;21.31;64.01;100648.56;4985342;28;20145;-73
2021/07/04 05:11:28;;;;;;;4.70;2.38;;;;;;;20.88;64.24;100648.97;4990110;28;20122;-73
2021/07/04 05:13:55;;;;;;;9.80;2.65;;;;;;;20.62;64.34;100657.75;4989254;28;20056;-75
2021/07/04 05:16:22;;;;;;;5.53;2.95;;;;;;;20.44;64.86;100659.81;4992900;28;20069;-77
2021/07/04 05:18:49;;;;;;;8.40;2.80;;;;;;;20.34;64.81;100661.91;4983997;28;20484;-77
2021/07/04 05:21:15;;;;;;;3.85;2.55;;;;;;;20.52;64.45;100671.16;4981456;28;20125;-76
2021/07/04 05:23:45;;;;;;;;;;;;;;;20.57;64.47;100679.44;4992255;28;20093;-71
2021/07/04 05:26:12;;;;;;;5.97;2.75;;;;;;;20.56;64.24;100671.28;4977603;28;20040;-69
2021/07/04 05:28:40;;;;;;;9.95;2.83;;;;;;;20.35;64.38;100640.03;4993508;28;20116;-65
2021/07/04 05:31:07;;;;;;;6.57;2.53;;;;;;;20.59;64.49;100667.78;4986925;28;20043;-64
2021/07/04 05:33:34;;;;;;;6.70;2.70;;;;;;;20.57;64.74;100670.94;4993193;28;20057;-67
2021/07/04 05:36:01;;;;;;;6.07;2.30;;;;;;;20.72;64.39;100669.50;4992290;28;20050;-66
2021/07/04 05:38:33;;;;;;;7.95;2.75;;;;;;;20.81;64.60;100675.91;5004396;28;20081;-72
2021/07/04 05:41:00;;;;;;;7.15;2.33;;;;;;;20.92;64.67;100673.50;4979924;28;20129;-74
2021/07/04 05:43:27;;;;;;;9.23;2.92;;;;;;;20.93;64.41;100666.66;4991199;28;20141;-68
2021/07/04 05:45:54;;;;;;;15.15;2.80;;;;;;;21.03;63.96;100683.25;4985649;28;20129;-68
2021/07/04 05:48:26;;;;;;;9.68;2.35;;;;;;;20.92;64.23;100681.16;4989653;28;20046;-69
2021/07/04 05:50:53;;;;;;;6.53;2.25;;;;;;;20.84;64.36;100691.44;4988653;28;20604;-65
2021/07/04 05:53:21;;;;;;;4.82;2.35;;;;;;;20.75;64.41;100687.81;4984834;28;20053;-68
2021/07/04 05:55:47;;;;;;;9.80;2.05;;;;;;;20.71;64.70;100687.69;4977572;28;20122;-63
2021/07/04 05:58:14;;;;;;;4.43;2.53;;;;;;;20.72;64.80;100678.00;4985960;28;20133;-69
2021/07/04 06:00:42;;;;;;;5.80;2.38;;;;;;;20.79;64.67;100675.44;4991343;28;20062;-66
2021/07/04 06:03:09;;;;;;;7.60;3.25;;;;;;;20.81;64.61;100681.59;4991581;28;20137;-65
2021/07/04 06:05:36;;;;;;;8.95;3.03;;;;;;;20.70;64.68;100696.56;4989285;28;20121;-70
2021/07/04 06:08:03;;;;;;;9.40;1.98;;;;;;;20.58;65.01;100701.00;4991117;28;20121;-70
2021/07/04 06:10:34;;;;;;;11.05;2.72;;;;;;;20.47;65.16;100685.50;4992783;28;20046;-69
2021/07/04 06:13:02;;;;;;;5.57;2.22;;;;;;;20.42;65.24;100696.22;4993847;28;20104;-70
2021/07/04 06:15:30;;;;;;;5.80;2.40;;;;;;;20.38;65.30;100690.41;4994804;28;20450;-70
2021/07/04 06:17:57;;;;;;;6.22;2.20;;;;;;;20.39;65.66;100692.06;5001725;28;20062;-69
2021/07/04 06:20:24;;;;;;;7.47;3.03;;;;;;;20.41;65.84;100709.59;4996580;28;20081;-69
2021/07/04 06:22:55;;;;;;;5.65;2.63;;;;;;;20.42;65.95;100705.56;4991268;28;20085;-70
2021/07/04 06:25:22;;;;;;;8.88;3.20;;;;;;;20.46;65.76;100715.03;4992919;28;20141;-70
2021/07/04 06:27:50;;;;;;;6.88;2.70;;;;;;;20.44;65.92;100700.34;4979398;28;20085;-69
2021/07/04 06:30:18;;;;;;;5.10;3.08;;;;;;;20.51;65.86;100706.38;4989342;28;20074;-70
2021/07/04 06:32:45;;;;;;;5.85;2.50;;;;;;;20.54;65.91;100702.00;4974790;28;20082;-70
2021/07/04 06:35:13;;;;;;;6.80;2.15;;;;;;;20.46;66.19;100692.34;4992716;28;20058;-70
2021/07/04 06:37:41;;;;;;;7.40;2.28;;;;;;;20.54;66.11;100694.31;4985630;28;20077;-70
2021/07/04 06:40:09;;;;;;;5.47;2.03;;;;;;;20.62;66.11;100701.13;4987391;28;20081;-71
2021/07/04 06:42:36;;;;;;;7.80;2.35;;;;;;;20.66;66.14;100707.78;4989435;28;20085;-71
2021/07/04 06:45:08;;;;;;;6.47;1.98;;;;;;;20.70;65.76;100685.19;4986924;28;20042;-70
2021/07/04 06:47:36;;;;;;;7.50;2.15;;;;;;;20.79;66.06;100705.84;4983579;28;20070;-71
2021/07/04 06:50:04;;;;;;;11.98;2.95;;;;;;;20.83;65.81;100709.66;4989851;28;20414;-70
2021/07/04 06:52:31;;;;;;;6.30;2.65;;;;;;;20.64;65.78;100672.38;4978706;28;20147;-70
2021/07/04 06:54:58;;;;;;;7.55;2.30;;;;;;;20.86;65.68;100711.78;4988714;28;20150;-70
2021/07/04 06:57:28;;;;;;;10.77;2.10;;;;;;;20.83;65.84;100695.44;4990611;28;20150;-70
2021/07/04 07:00:04;;;;;;;;;;;;;;;20.93;65.74;100706.38;4989530;28;20653;-70
2021/07/04 07:02:31;;;;;;;11.77;2.60;;;;;;;20.98;65.70;100713.84;4984724;28;20441;-70
2021/07/04 07:04:58;;;;;;;6.35;1.67;;;;;;;21.01;65.75;100718.84;4988708;28;20050;-70
2021/07/04 07:07:25;;;;;;;9.77;1.83;;;;;;;21.00;65.82;100712.34;4981290;28;20074;-70
2021/07/04 07:09:52;;;;;;;5.82;1.95;;;;;;;20.86;65.85;100694.75;4977343;28;20136;-69
2021/07/04 07:12:19;;;;;;;9.95;2.58;;;;;;;20.92;65.83;100704.75;4982367;28;20460;-69
2021/07/04 07:14:46;;;;;;;7.57;2.03;;;;;;;21.05;65.58;100708.44;4989945;28;20081;-69
2021/07/04 07:17:13;;;;;;;4.50;2.03;;;;;;;20.90;65.51;100694.91;4989562;28;20137;-69
2021/07/04 07:19:40;;;;;;;6.18;1.70;;;;;;;20.98;65.76;100700.47;4986544;28;20045;-69
2021/07/04 07:22:07;;;;;;;8.82;2.20;;;;;;;21.06;65.54;100705.28;4973305;28;20078;-71
2021/07/04 07:24:34;;;;;;;4.28;2.05;;;;;;;21.19;65.25;100714.66;4996784;28;20418;-72
2021/07/04 07:27:02;;;;;;;3.90;1.55;;;;;;;21.18;65.01;100690.28;4975932;28;20082;-73
2021/07/04 07:29:29;;;;;;;9.38;2.05;;;;;;;21.57;64.89;100712.81;4980721;28;20133;-72
2021/07/04 07:31:56;;;;;;;3.20;1.50;;;;;;;21.54;64.62;100703.00;4988491;28;20742;-67
2021/07/04 07:34:23;;;;;;;8.10;2.33;;;;;;;21.89;64.18;100711.94;4988898;28;20125;-74
2021/07/04 07:36:49;;;;;;;6.30;2.15;;;;;;;21.99;63.74;100720.00;4986926;28;20137;-73
2021/07/04 07:39:16;;;;;;;5.72;1.45;;;;;;;21.90;63.48;100716.44;4988017;28;20149;-72
2021/07/04 07:41:43;;;;;;;7.53;1.75;;;;;;;21.77;63.63;100712.72;4988278;28;20138;-72
2021/07/04 07:44:12;;;;;;;11.00;2.30;;;;;;;21.64;63.51;100708.22;4980926;28;20137;-70
2021/07/04 07:46:40;;;;;;;12.25;1.77;;;;;;;21.67;63.49;100718.88;4987315;28;20138;-71
2021/07/04 07:49:08;;;;;;;5.38;1.67;;;;;;;21.61;63.83;100714.59;4989823;28;20051;-68
2021/07/04 07:51:35;;;;;;;3.33;1.65;;;;;;;21.79;63.77;100715.22;4996081;28;20191;-69
2021/07/04 07:54:03;;;;;;;5.55;1.92;;;;;;;21.83;63.33;100704.81;4993539;28;20126;-68
2021/07/04 07:56:31;;;;;;;5.32;2.08;;;;;;;21.94;63.10;100708.00;4988855;28;20137;-67
2021/07/04 07:58:57;;;;;;;3.03;1.30;;;;;;;21.86;63.04;100680.53;4993049;28;20617;-67
2021/07/04 08:01:24;;;;;;;6.22;2.60;;;;;;;22.24;62.57;100720.88;4995119;28;20475;-67
2021/07/04 08:03:51;;;;;;;4.30;1.30;;;;;;;22.44;62.06;100726.78;4997672;28;20077;-67
2021/07/04 08:06:18;;;;;;;4.70;1.85;;;;;;;22.52;61.86;100730.69;4996876;28;20065;-67
2021/07/04 08:08:45;;;;;;;7.13;2.25;;;;;;;22.50;61.47;100707.47;5007732;28;20470;-67
2021/07/04 08:11:12;;;;;;;5.95;1.40;;;;;;;22.39;61.76;100716.50;4997266;28;20125;-66
2021/07/04 08:13:39;;;;;;;4.40;1.40;;;;;;;22.27;61.62;100710.78;4985307;28;20122;-67
2021/07/04 08:16:06;;;;;;;5.60;1.50;;;;;;;22.34;61.72;100728.09;4978053;28;20129;-67
2021/07/04 08:18:33;;;;;;;3.35;1.40;;;;;;;22.32;61.85;100735.31;4979623;28;20499;-67
2021/07/04 08:21:01;;;;;;;5.63;1.80;;;;;;;22.22;61.72;100719.56;4985296;28;20053;-67
2021/07/04 08:23:27;;;;;;;8.27;2.03;;;;;;;22.28;61.32;100709.59;4997892;28;20046;-67
2021/07/04 08:25:54;;;;;;;4.85;1.73;;;;;;;22.55;61.12;100741.38;4996593;28;20105;-67
2021/07/04 08:28:21;;;;;;;7.20;2.00;;;;;;;22.54;60.73;100745.41;4998406;28;20086;-67
2021/07/04 08:30:48;;;;;;;5.90;1.60;;;;;;;22.53;61.09;100753.13;4997984;28;20684;-66
2021/07/04 08:33:15;;;;;;;4.32;1.33;;;;;;;22.46;61.36;100752.84;5013569;28;20050;-66
2021/07/04 08:35:42;;;;;;;7.95;2.10;;;;;;;22.45;60.82;100759.75;4997802;28;20089;-66
2021/07/04 08:38:09;;;;;;;4.30;1.80;;;;;;;22.40;61.14;100748.63;4994383;28;20097;-66
2021/07/04 08:40:36;;;;;;;3.58;1.58;;;;;;;22.31;61.25;100760.09;4997400;28;20129;-66
2021/07/04 08:43:05;;;;;;;3.80;1.67;;;;;;;22.26;61.27;100743.28;4997900;28;20088;-66
2021/07/04 08:45:39;;;;;;;7.45;2.03;;;;;;;22.10;60.96;100708.16;4978910;28;20146;-67
2021/07/04 08:48:07;;;;;;;11.90;1.88;;;;;;;22.19;61.07;100754.41;4997477;28;20490;-66
2021/07/04 08:50:35;;;;;;;4.85;1.38;;;;;;;22.07;61.15;100740.16;4984746;28;20101;-67
2021/07/04 08:53:02;;;;;;;3.72;1.63;;;;;;;22.12;61.40;100756.97;4989342;28;20046;-66
2021/07/04 08:55:29;;;;;;;5.93;1.73;;;;;;;22.09;61.16;100752.00;4998708;28;20046;-67
2021/07/04 08:57:59;;;;;;;8.23;2.40;;;;;;;22.11;61.30;100756.13;4997870;28;20061;-68
2021/07/04 09:00:26;;;;;;;;;;;;;;;22.06;61.46;100741.34;4995249;28;20085;-67
2021/07/04 09:02:53;;;;;;;7.15;1.67;;;;;;;22.09;61.32;100747.16;4993457;28;19968;-67
2021/07/04 09:05:21;;;;;;;2.95;1.58;;;;;;;22.00;61.36;100733.03;4995015;28;20093;-67
2021/07/04 09:07:48;;;;;;;2.45;1.13;;;;;;;21.97;61.45;100739.41;4995672;28;20464;-67
2021/07/04 09:10:19;;;;;;;5.43;2.00;;;;;;;22.07;61.40;100737.31;4986341;28;20078;-66
2021/07/04 09:12:52;;;;;;;4.78;1.40;;;;;;;22.14;60.64;100752.59;4983256;28;20053;-68
2021/07/04 09:15:24;;;;;;;2.38;1.23;;;;;;;22.13;60.53;100735.91;4995481;28;20051;-68
2021/07/04 09:17:53;;;;;;;3.35;1.50;;;;;;;22.19;60.94;100743.88;4994880;28;20062;-67
2021/07/04 09:20:41;;;;;;;10.82;2.15;;;;;;;22.12;61.55;100756.97;4994484;28;20084;-67
2021/07/04 09:23:08;;;;;;;7.00;1.42;;;;;;;22.21;60.98;100757.72;4993736;28;20485;-67
2021/07/04 09:25:38;;;;;;;4.85;2.03;;;;;;;22.27;61.07;100752.63;4992314;28;20077;-67
2021/07/04 09:28:15;;;;;;;4.47;1.95;;;;;;;22.26;61.11;100756.66;4995267;28;20078;-67
2021/07/04 09:30:43;;;;;;;4.57;1.98;;;;;;;22.27;60.48;100742.09;4993901;28;20129;-67
2021/07/04 09:33:29;;;;;;;5.78;1.73;;;;;;;22.41;60.63;100742.56;4993261;28;20089;-67
2021/07/04 09:36:00;;;;;;;4.43;1.40;;;;;;;22.49;60.59;100755.00;4992941;28;20089;-68
2021/07/04 09:38:32;;;;;;;4.55;1.50;;;;;;;22.53;60.55;100747.44;4994573;28;20134;-68
2021/07/04 09:41:01;;;;;;;4.72;2.17;;;;;;;22.30;60.69;100741.38;4994294;28;20138;-66
2021/07/04 09:43:30;;;;;;;3.67;1.48;;;;;;;22.29;60.72;100745.41;4982538;28;20086;-65
2021/07/04 09:46:05;;;;;;;6.60;2.30;;;;;;;22.39;60.61;100749.78;4974694;28;20471;-66
2021/07/04 09:48:32;;;;;;;4.57;1.63;;;;;;;22.43;60.59;100762.13;4993906;28;20190;-66
2021/07/04 09:51:00;;;;;;;4.82;1.77;;;;;;;22.50;60.33;100745.28;4994223;28;20085;-66
2021/07/04 09:53:57;;;;;;;5.00;1.63;;;;;;;22.67;60.24;100745.03;4994792;28;20460;-67
2021/07/04 09:56:29;;;;;;;8.15;2.03;;;;;;;22.82;59.81;100743.44;4991157;28;20602;-67
2021/07/04 09:58:59;;;;;;;2.33;1.20;;;;;;;22.80;59.57;100751.50;4993990;28;20465;-66
2021/07/04 10:01:46;;;;;;;2.08;1.63;;;;;;;22.67;59.78;100749.91;4994267;28;20125;-67
2021/07/04 10:04:27;;;;;;;6.72;1.45;;;;;;;22.74;60.02;100758.66;4993397;28;20050;-67
2021/07/04 10:06:55;;;;;;;5.43;1.42;;;;;;;22.81;59.35;100758.88;4993823;28;20089;-68
2021/07/04 10:09:26;;;;;;;6.60;2.10;;;;;;;22.96;59.22;100759.34;4994377;28;20089;-67
2021/07/04 10:11:53;;;;;;;3.25;1.33;;;;;;;23.00;58.36;100741.19;4993060;28;20541;-68
2021/07/04 10:14:20;;;;;;;4.03;1.20;;;;;;;23.08;58.19;100750.78;4993711;28;20082;-67
2021/07/04 10:16:48;;;;;;;8.20;1.75;;;;;;;23.05;58.34;100766.56;4993467;28;20129;-67
2021/07/04 10:19:23;;;;;;;5.47;1.70;;;;;;;23.10;58.08;100759.78;4994096;28;20089;-67
2021/07/04 10:22:02;;;;;;;10.88;1.60;;;;;;;23.10;58.14;100762.63;4993136;28;20050;-68
2021/07/04 10:24:30;;;;;;;8.18;3.38;;;;;;;22.96;57.62;100740.25;4981916;28;20058;-67
2021/07/04 10:27:01;;;;;;;3.30;1.25;;;;;;;23.07;57.88;100754.81;4988023;28;20101;-68
2021/07/04 10:29:30;;;;;;;4.95;1.38;;;;;;;22.89;57.91;100717.22;4991403;28;20097;-68
2021/07/04 10:32:11;;;;;;;5.88;1.70;;;;;;;23.39;57.89;100765.16;4988369;28;20129;-69
2021/07/04 10:34:43;;;;;;;7.10;1.92;;;;;;;23.55;58.04;100755.81;4991564;28;20125;-69
2021/07/04 10:37:11;;;;;;;4.25;1.30;;;;;;;23.64;57.84;100763.00;4989489;28;20073;-69
2021/07/04 10:39:38;;;;;;;3.53;1.50;;;;;;;23.77;57.24;100780.09;4989255;28;20070;-68
2021/07/04 10:42:11;;;;;;;4.18;1.60;;;;;;;24.07;57.64;100771.94;4990260;28;20086;-69
2021/07/04 10:44:49;;;;;;;4.03;1.38;;;;;;;24.53;56.81;100758.88;4992873;28;20472;-68
2021/07/04 10:47:24;;;;;;;6.55;1.95;;;;;;;24.50;56.15;100770.22;4991569;28;20125;-68
2021/07/04 10:50:17;;;;;;;5.45;1.50;;;;;;;24.39;56.09;100766.25;4987485;28;20042;-68
2021/07/04 10:52:50;;;;;;;11.80;1.52;;;;;;;24.16;56.62;100760.34;4983970;28;20125;-67
2021/07/04 10:55:30;;;;;;;5.25;1.88;;;;;;;24.04;56.20;100744.16;4991299;28;20521;-68
2021/07/04 10:58:00;;;;;;;7.70;1.63;;;;;;;24.21;56.38;100752.34;4985329;28;20050;-67
2021/07/04 11:00:32;;;;;;;;;;;;;;;24.12;56.91;100765.97;4991091;28;20440;-67
2021/07/04 11:03:09;;;;;;;10.98;1.50;;;;;;;24.00;56.53;100748.91;4985577;28;19926;-68
2021/07/04 11:05:37;;;;;;;7.20;1.98;;;;;;;24.04;56.08;100772.69;4998426;28;20051;-67
2021/07/04 11:08:05;;;;;;;5.28;1.95;;;;;;;24.08;56.21;100770.75;4986992;28;20078;-68
2021/07/04 11:10:48;;;;;;;6.00;1.65;;;;;;;24.00;56.39;100754.63;4990164;28;20122;-67
2021/07/04 11:13:15;;;;;;;8.93;1.60;;;;;;;24.21;55.74;100772.31;4990008;28;20050;-68
2021/07/04 11:15:43;;;;;;;4.93;1.45;;;;;;;24.30;55.35;100755.00;4989471;28;20068;-68
2021/07/04 11:18:12;;;;;;;8.07;2.28;;;;;;;24.41;55.16;100763.84;4989960;28;20439;-66
2021/07/04 11:20:39;;;;;;;6.97;1.70;;;;;;;24.36;55.01;100774.31;4982576;28;20077;-64
2021/07/04 11:23:10;;;;;;;4.32;1.75;;;;;;;24.33;54.93;100768.53;4987189;28;20129;-63
2021/07/04 11:25:40;;;;;;;9.73;1.95;;;;;;;24.21;54.51;100755.19;4984757;28;20089;-64
2021/07/04 11:28:16;;;;;;;1.90;1.50;;;;;;;24.36;54.84;100764.94;4991869;28;20125;-62
2021/07/04 11:30:47;;;;;;;5.57;1.60;;;;;;;24.55;54.82;100764.22;4985887;28;20112;-63
2021/07/04 11:33:28;;;;;;;7.40;1.25;;;;;;;24.63;54.61;100770.94;4982757;28;20125;-65